sensor_id;sensor_type;location;lat;lon;timestamp;noise_LAeq;noise_LA_min;noise_LA_max;noise_LA01;noise_LA95
46393;Laerm;32099;53.588;10.176;2022-12-24T00:01:08;38.74;34.76;55.56;;
46393;Laerm;32099;53.588;10.176;2022-12-24T00:03:35;39.07;34.71;56.72;;
46393;Laerm;32099;53.588;10.176;2022-12-24T00:06:08;39.71;35.05;58.63;;
46393;Laerm;32099;53.588;10.176;2022-12-24T00:08:34;38.67;34.72;59.44;;
46393;Laerm;32099;53.588;10.176;2022-12-24T00:11:00;38.50;33.99;57.30;;
46393;Laerm;32099;53.588;10.176;2022-12-24T00:13:25;39.31;34.34;62.86;;
46393;Laerm;32099;53.588;10.176;2022-12-24T00:15:51;38.60;33.33;55.38;;
46393;Laerm;32099;53.588;10.176;2022-12-24T00:18:16;37.62;32.80;58.35;;
46393;Laerm;32099;53.588;10.176;2022-12-24T00:20:46;38.57;32.92;56.11;;
46393;Laerm;32099;53.588;10.176;2022-12-24T00:23:13;38.79;33.48;56.89;;
46393;Laerm;32099;53.588;10.176;2022-12-24T00:25:38;38.51;33.28;52.48;;
46393;Laerm;32099;53.588;10.176;2022-12-24T00:28:03;46.47;33.95;66.07;;
46393;Laerm;32099;53.588;10.176;2022-12-24T00:30:29;37.24;33.62;55.65;;
46393;Laerm;32099;53.588;10.176;2022-12-24T00:32:54;36.81;33.07;54.09;;
46393;Laerm;32099;53.588;10.176;2022-12-24T00:35:19;37.65;33.34;54.44;;
46393;Laerm;32099;53.588;10.176;2022-12-24T00:37:48;38.39;34.17;56.54;;
46393;Laerm;32099;53.588;10.176;2022-12-24T00:40:15;39.01;34.31;52.13;;
46393;Laerm;32099;53.588;10.176;2022-12-24T00:42:41;39.82;34.89;55.78;;
46393;Laerm;32099;53.588;10.176;2022-12-24T00:45:07;38.64;34.88;56.98;;
46393;Laerm;32099;53.588;10.176;2022-12-24T00:47:32;38.42;34.18;62.14;;
46393;Laerm;32099;53.588;10.176;2022-12-24T00:49:57;38.20;34.28;59.64;;
46393;Laerm;32099;53.588;10.176;2022-12-24T00:52:23;38.17;34.03;58.36;;
46393;Laerm;32099;53.588;10.176;2022-12-24T00:54:48;37.74;34.37;55.87;;
46393;Laerm;32099;53.588;10.176;2022-12-24T00:57:13;36.93;33.64;57.15;;
46393;Laerm;32099;53.588;10.176;2022-12-24T00:59:39;38.32;33.14;55.47;;
46393;Laerm;32099;53.588;10.176;2022-12-24T01:02:04;36.81;32.31;52.47;;
46393;Laerm;32099;53.588;10.176;2022-12-24T01:04:29;36.20;32.54;50.90;;
46393;Laerm;32099;53.588;10.176;2022-12-24T01:07:13;36.83;32.98;53.70;;
46393;Laerm;32099;53.588;10.176;2022-12-24T01:09:38;37.79;33.10;57.59;;
46393;Laerm;32099;53.588;10.176;2022-12-24T01:12:04;36.59;33.04;52.11;;
46393;Laerm;32099;53.588;10.176;2022-12-24T01:14:29;35.82;32.87;53.87;;
46393;Laerm;32099;53.588;10.176;2022-12-24T01:16:54;35.53;32.57;53.08;;
46393;Laerm;32099;53.588;10.176;2022-12-24T01:19:19;35.33;31.84;54.85;;
46393;Laerm;32099;53.588;10.176;2022-12-24T01:21:45;35.18;32.37;57.02;;
46393;Laerm;32099;53.588;10.176;2022-12-24T01:24:14;35.12;31.97;54.72;;
46393;Laerm;32099;53.588;10.176;2022-12-24T01:26:40;45.49;31.97;65.07;;
46393;Laerm;32099;53.588;10.176;2022-12-24T01:29:05;35.75;32.76;52.30;;
46393;Laerm;32099;53.588;10.176;2022-12-24T01:31:31;35.60;32.20;55.64;;
46393;Laerm;32099;53.588;10.176;2022-12-24T01:33:56;35.34;32.57;54.07;;
46393;Laerm;32099;53.588;10.176;2022-12-24T01:36:21;36.50;32.64;57.67;;
46393;Laerm;32099;53.588;10.176;2022-12-24T01:38:47;35.96;32.75;51.93;;
46393;Laerm;32099;53.588;10.176;2022-12-24T01:41:18;35.57;32.71;49.38;;
46393;Laerm;32099;53.588;10.176;2022-12-24T01:44:16;36.95;32.84;58.22;;
46393;Laerm;32099;53.588;10.176;2022-12-24T01:46:41;35.72;32.62;51.67;;
46393;Laerm;32099;53.588;10.176;2022-12-24T01:49:10;36.94;32.98;52.67;;
46393;Laerm;32099;53.588;10.176;2022-12-24T01:51:42;35.64;32.98;53.23;;
46393;Laerm;32099;53.588;10.176;2022-12-24T01:54:16;35.55;32.75;49.95;;
46393;Laerm;32099;53.588;10.176;2022-12-24T01:56:48;36.48;32.86;57.70;;
46393;Laerm;32099;53.588;10.176;2022-12-24T01:59:17;38.16;33.38;52.90;;
46393;Laerm;32099;53.588;10.176;2022-12-24T02:01:46;42.41;37.54;55.65;;
46393;Laerm;32099;53.588;10.176;2022-12-24T02:04:22;41.43;36.51;58.57;;
46393;Laerm;32099;53.588;10.176;2022-12-24T02:06:50;39.05;35.23;53.18;;
46393;Laerm;32099;53.588;10.176;2022-12-24T02:09:15;38.20;34.23;56.28;;
46393;Laerm;32099;53.588;10.176;2022-12-24T02:11:41;38.23;33.19;58.18;;
46393;Laerm;32099;53.588;10.176;2022-12-24T02:14:09;36.45;32.63;57.28;;
46393;Laerm;32099;53.588;10.176;2022-12-24T02:16:45;37.11;33.43;58.17;;
46393;Laerm;32099;53.588;10.176;2022-12-24T02:24:53;36.88;33.28;55.97;;
46393;Laerm;32099;53.588;10.176;2022-12-24T02:27:33;37.24;32.70;55.98;;
46393;Laerm;32099;53.588;10.176;2022-12-24T02:30:11;37.21;33.96;52.91;;
46393;Laerm;32099;53.588;10.176;2022-12-24T02:35:18;38.98;34.06;53.20;;
46393;Laerm;32099;53.588;10.176;2022-12-24T02:37:52;40.23;35.90;56.29;;
46393;Laerm;32099;53.588;10.176;2022-12-24T02:40:23;42.86;38.50;56.73;;
46393;Laerm;32099;53.588;10.176;2022-12-24T02:42:55;42.37;37.53;57.48;;
46393;Laerm;32099;53.588;10.176;2022-12-24T02:45:27;41.42;36.29;56.40;;
46393;Laerm;32099;53.588;10.176;2022-12-24T02:47:54;42.89;36.86;57.04;;
46393;Laerm;32099;53.588;10.176;2022-12-24T02:50:20;44.34;39.47;59.35;;
46393;Laerm;32099;53.588;10.176;2022-12-24T02:52:47;41.66;36.57;57.26;;
46393;Laerm;32099;53.588;10.176;2022-12-24T02:55:17;39.85;35.55;56.87;;
46393;Laerm;32099;53.588;10.176;2022-12-24T03:00:42;39.43;34.34;58.47;;
46393;Laerm;32099;53.588;10.176;2022-12-24T03:06:20;41.66;36.64;60.48;;
46393;Laerm;32099;53.588;10.176;2022-12-24T03:08:55;42.66;37.81;60.60;;
46393;Laerm;32099;53.588;10.176;2022-12-24T03:11:23;44.41;40.00;58.02;;
46393;Laerm;32099;53.588;10.176;2022-12-24T03:13:50;43.80;39.73;59.26;;
46393;Laerm;32099;53.588;10.176;2022-12-24T03:16:22;47.07;40.66;60.01;;
46393;Laerm;32099;53.588;10.176;2022-12-24T03:18:49;48.93;43.57;60.78;;
46393;Laerm;32099;53.588;10.176;2022-12-24T03:21:28;48.61;42.98;61.14;;
46393;Laerm;32099;53.588;10.176;2022-12-24T03:23:55;45.24;39.39;61.36;;
46393;Laerm;32099;53.588;10.176;2022-12-24T03:26:20;41.82;36.86;62.13;;
46393;Laerm;32099;53.588;10.176;2022-12-24T03:28:47;40.30;35.54;56.21;;
46393;Laerm;32099;53.588;10.176;2022-12-24T03:31:13;39.78;35.93;55.16;;
46393;Laerm;32099;53.588;10.176;2022-12-24T03:33:38;39.87;34.79;59.12;;
46393;Laerm;32099;53.588;10.176;2022-12-24T03:36:05;38.91;35.35;56.12;;
46393;Laerm;32099;53.588;10.176;2022-12-24T03:38:30;39.09;35.34;59.16;;
46393;Laerm;32099;53.588;10.176;2022-12-24T03:40:56;40.04;35.30;56.41;;
46393;Laerm;32099;53.588;10.176;2022-12-24T03:43:22;40.24;35.25;55.24;;
46393;Laerm;32099;53.588;10.176;2022-12-24T03:45:47;40.32;35.62;55.45;;
46393;Laerm;32099;53.588;10.176;2022-12-24T03:48:12;42.08;37.69;55.21;;
46393;Laerm;32099;53.588;10.176;2022-12-24T03:50:38;45.86;39.37;57.94;;
46393;Laerm;32099;53.588;10.176;2022-12-24T03:53:03;50.42;43.25;62.94;;
46393;Laerm;32099;53.588;10.176;2022-12-24T03:55:28;51.97;46.39;65.31;;
46393;Laerm;32099;53.588;10.176;2022-12-24T03:57:53;48.99;42.60;61.69;;
46393;Laerm;32099;53.588;10.176;2022-12-24T04:00:19;44.47;39.87;63.08;;
46393;Laerm;32099;53.588;10.176;2022-12-24T04:02:45;43.19;38.50;60.51;;
46393;Laerm;32099;53.588;10.176;2022-12-24T04:05:16;44.35;39.85;55.12;;
46393;Laerm;32099;53.588;10.176;2022-12-24T04:07:42;45.40;40.83;56.87;;
46393;Laerm;32099;53.588;10.176;2022-12-24T04:10:08;45.80;40.45;56.89;;
46393;Laerm;32099;53.588;10.176;2022-12-24T04:12:34;49.41;44.36;59.54;;
46393;Laerm;32099;53.588;10.176;2022-12-24T04:14:59;46.10;40.37;58.48;;
46393;Laerm;32099;53.588;10.176;2022-12-24T04:17:25;45.13;39.76;57.58;;
46393;Laerm;32099;53.588;10.176;2022-12-24T04:19:50;47.87;42.29;61.35;;
46393;Laerm;32099;53.588;10.176;2022-12-24T04:22:15;47.60;43.12;61.26;;
46393;Laerm;32099;53.588;10.176;2022-12-24T04:24:40;46.54;41.81;68.57;;
46393;Laerm;32099;53.588;10.176;2022-12-24T04:27:06;44.23;40.61;58.65;;
46393;Laerm;32099;53.588;10.176;2022-12-24T04:29:31;43.56;39.83;57.86;;
46393;Laerm;32099;53.588;10.176;2022-12-24T04:31:56;43.17;38.65;62.47;;
46393;Laerm;32099;53.588;10.176;2022-12-24T04:34:22;42.86;37.98;59.90;;
46393;Laerm;32099;53.588;10.176;2022-12-24T04:36:47;42.78;38.04;59.12;;
46393;Laerm;32099;53.588;10.176;2022-12-24T04:39:12;42.99;37.95;61.54;;
46393;Laerm;32099;53.588;10.176;2022-12-24T04:41:37;43.49;38.88;59.05;;
46393;Laerm;32099;53.588;10.176;2022-12-24T04:44:03;43.05;38.36;56.96;;
46393;Laerm;32099;53.588;10.176;2022-12-24T04:46:28;47.10;39.22;64.79;;
46393;Laerm;32099;53.588;10.176;2022-12-24T04:48:58;47.91;39.19;67.39;;
46393;Laerm;32099;53.588;10.176;2022-12-24T04:51:25;43.71;39.13;59.53;;
46393;Laerm;32099;53.588;10.176;2022-12-24T04:53:50;43.27;38.61;59.51;;
46393;Laerm;32099;53.588;10.176;2022-12-24T04:56:21;44.17;39.04;59.16;;
46393;Laerm;32099;53.588;10.176;2022-12-24T04:58:47;44.08;39.08;55.67;;
46393;Laerm;32099;53.588;10.176;2022-12-24T05:01:17;48.90;39.29;67.40;;
46393;Laerm;32099;53.588;10.176;2022-12-24T05:03:43;45.46;40.05;58.55;;
46393;Laerm;32099;53.588;10.176;2022-12-24T05:06:11;46.19;41.82;60.13;;
46393;Laerm;32099;53.588;10.176;2022-12-24T05:08:36;45.86;41.66;59.48;;
46393;Laerm;32099;53.588;10.176;2022-12-24T05:11:03;46.81;42.22;58.85;;
46393;Laerm;32099;53.588;10.176;2022-12-24T05:13:28;46.35;41.66;60.71;;
46393;Laerm;32099;53.588;10.176;2022-12-24T05:15:54;45.64;40.26;60.15;;
46393;Laerm;32099;53.588;10.176;2022-12-24T05:18:19;44.88;40.05;58.51;;
46393;Laerm;32099;53.588;10.176;2022-12-24T05:20:45;43.63;38.32;57.14;;
46393;Laerm;32099;53.588;10.176;2022-12-24T05:23:22;42.42;37.64;58.87;;
46393;Laerm;32099;53.588;10.176;2022-12-24T05:28:54;41.31;36.27;57.41;;
46393;Laerm;32099;53.588;10.176;2022-12-24T05:31:21;38.71;35.09;54.40;;
46393;Laerm;32099;53.588;10.176;2022-12-24T05:33:47;39.45;34.89;59.96;;
46393;Laerm;32099;53.588;10.176;2022-12-24T05:36:13;47.65;35.19;61.08;;
46393;Laerm;32099;53.588;10.176;2022-12-24T05:38:38;40.06;35.20;56.43;;
46393;Laerm;32099;53.588;10.176;2022-12-24T05:41:04;40.11;34.90;58.77;;
46393;Laerm;32099;53.588;10.176;2022-12-24T05:43:29;39.52;34.92;55.84;;
46393;Laerm;32099;53.588;10.176;2022-12-24T05:45:59;39.40;34.14;56.36;;
46393;Laerm;32099;53.588;10.176;2022-12-24T05:48:24;49.12;34.77;69.69;;
46393;Laerm;32099;53.588;10.176;2022-12-24T05:50:50;48.16;35.37;66.15;;
46393;Laerm;32099;53.588;10.176;2022-12-24T05:53:15;39.16;34.83;56.21;;
46393;Laerm;32099;53.588;10.176;2022-12-24T05:55:40;37.37;34.07;51.76;;
46393;Laerm;32099;53.588;10.176;2022-12-24T05:58:06;40.02;34.72;56.93;;
46393;Laerm;32099;53.588;10.176;2022-12-24T06:00:31;41.82;37.54;58.17;;
46393;Laerm;32099;53.588;10.176;2022-12-24T06:02:56;41.01;36.61;56.51;;
46393;Laerm;32099;53.588;10.176;2022-12-24T06:05:22;40.57;35.64;59.02;;
46393;Laerm;32099;53.588;10.176;2022-12-24T06:07:47;47.94;35.53;67.94;;
46393;Laerm;32099;53.588;10.176;2022-12-24T06:10:12;47.06;35.05;66.73;;
46393;Laerm;32099;53.588;10.176;2022-12-24T06:12:38;39.29;34.59;59.07;;
46393;Laerm;32099;53.588;10.176;2022-12-24T06:15:03;41.88;37.33;57.34;;
46393;Laerm;32099;53.588;10.176;2022-12-24T06:17:29;45.60;38.77;59.37;;
46393;Laerm;32099;53.588;10.176;2022-12-24T06:19:55;50.25;45.37;61.80;;
46393;Laerm;32099;53.588;10.176;2022-12-24T06:22:20;49.95;43.86;65.06;;
46393;Laerm;32099;53.588;10.176;2022-12-24T06:24:45;47.15;41.75;59.26;;
46393;Laerm;32099;53.588;10.176;2022-12-24T06:27:10;44.31;39.61;59.09;;
46393;Laerm;32099;53.588;10.176;2022-12-24T06:29:36;43.72;38.91;61.01;;
46393;Laerm;32099;53.588;10.176;2022-12-24T06:32:01;43.04;38.60;58.48;;
46393;Laerm;32099;53.588;10.176;2022-12-24T06:34:26;44.67;39.48;59.95;;
46393;Laerm;32099;53.588;10.176;2022-12-24T06:36:52;48.27;42.62;57.85;;
46393;Laerm;32099;53.588;10.176;2022-12-24T06:39:17;52.73;43.08;63.71;;
46393;Laerm;32099;53.588;10.176;2022-12-24T06:41:42;45.81;40.76;59.39;;
46393;Laerm;32099;53.588;10.176;2022-12-24T06:44:08;49.00;41.28;63.10;;
46393;Laerm;32099;53.588;10.176;2022-12-24T06:46:33;45.42;40.93;60.10;;
46393;Laerm;32099;53.588;10.176;2022-12-24T06:48:58;44.42;39.41;61.86;;
46393;Laerm;32099;53.588;10.176;2022-12-24T06:51:24;42.28;38.04;59.71;;
46393;Laerm;32099;53.588;10.176;2022-12-24T06:53:49;43.43;37.14;67.67;;
46393;Laerm;32099;53.588;10.176;2022-12-24T06:56:14;53.12;36.91;69.51;;
46393;Laerm;32099;53.588;10.176;2022-12-24T06:58:40;45.81;36.19;62.51;;
46393;Laerm;32099;53.588;10.176;2022-12-24T07:01:09;47.57;36.88;68.15;;
46393;Laerm;32099;53.588;10.176;2022-12-24T07:03:35;41.92;35.47;56.54;;
46393;Laerm;32099;53.588;10.176;2022-12-24T07:06:00;49.90;37.04;67.00;;
46393;Laerm;32099;53.588;10.176;2022-12-24T07:08:26;41.44;37.07;55.11;;
46393;Laerm;32099;53.588;10.176;2022-12-24T07:10:52;40.59;35.52;56.45;;
46393;Laerm;32099;53.588;10.176;2022-12-24T07:13:18;47.69;35.71;66.95;;
46393;Laerm;32099;53.588;10.176;2022-12-24T07:15:44;40.00;35.24;53.93;;
46393;Laerm;32099;53.588;10.176;2022-12-24T07:18:10;46.17;35.38;76.98;;
46393;Laerm;32099;53.588;10.176;2022-12-24T07:20:36;56.80;35.67;77.38;;
46393;Laerm;32099;53.588;10.176;2022-12-24T07:23:01;40.51;35.86;56.89;;
46393;Laerm;32099;53.588;10.176;2022-12-24T07:25:26;52.76;35.24;72.94;;
46393;Laerm;32099;53.588;10.176;2022-12-24T07:27:52;56.01;36.04;71.26;;
46393;Laerm;32099;53.588;10.176;2022-12-24T07:30:17;51.86;36.23;70.14;;
46393;Laerm;32099;53.588;10.176;2022-12-24T07:32:42;38.12;34.51;56.27;;
46393;Laerm;32099;53.588;10.176;2022-12-24T07:35:08;52.43;35.62;70.38;;
46393;Laerm;32099;53.588;10.176;2022-12-24T07:37:34;54.46;35.98;73.98;;
46393;Laerm;32099;53.588;10.176;2022-12-24T07:39:59;51.19;35.78;67.32;;
46393;Laerm;32099;53.588;10.176;2022-12-24T07:42:24;55.02;36.95;69.91;;
46393;Laerm;32099;53.588;10.176;2022-12-24T07:44:50;52.06;35.43;74.03;;
46393;Laerm;32099;53.588;10.176;2022-12-24T07:47:15;53.49;36.67;70.89;;
46393;Laerm;32099;53.588;10.176;2022-12-24T07:49:40;46.30;36.34;63.92;;
46393;Laerm;32099;53.588;10.176;2022-12-24T07:52:06;39.40;35.53;50.96;;
46393;Laerm;32099;53.588;10.176;2022-12-24T07:54:31;52.60;36.81;73.00;;
46393;Laerm;32099;53.588;10.176;2022-12-24T07:56:56;40.00;36.18;50.90;;
46393;Laerm;32099;53.588;10.176;2022-12-24T07:59:22;50.53;36.16;64.23;;
46393;Laerm;32099;53.588;10.176;2022-12-24T08:01:47;43.42;35.76;58.73;;
46393;Laerm;32099;53.588;10.176;2022-12-24T08:04:12;52.25;36.59;69.77;;
46393;Laerm;32099;53.588;10.176;2022-12-24T08:06:38;51.52;36.97;68.24;;
46393;Laerm;32099;53.588;10.176;2022-12-24T08:09:04;54.03;35.53;71.61;;
46393;Laerm;32099;53.588;10.176;2022-12-24T08:11:29;42.71;37.22;64.08;;
46393;Laerm;32099;53.588;10.176;2022-12-24T08:13:54;42.07;37.16;59.28;;
46393;Laerm;32099;53.588;10.176;2022-12-24T08:16:20;49.64;36.37;70.05;;
46393;Laerm;32099;53.588;10.176;2022-12-24T08:18:45;48.43;36.92;66.18;;
46393;Laerm;32099;53.588;10.176;2022-12-24T08:21:10;54.91;37.42;73.08;;
46393;Laerm;32099;53.588;10.176;2022-12-24T08:23:36;54.89;39.44;69.30;;
46393;Laerm;32099;53.588;10.176;2022-12-24T08:26:02;41.16;36.56;59.32;;
46393;Laerm;32099;53.588;10.176;2022-12-24T08:28:27;56.51;36.53;86.20;;
46393;Laerm;32099;53.588;10.176;2022-12-24T08:30:53;52.31;37.58;80.57;;
46393;Laerm;32099;53.588;10.176;2022-12-24T08:33:18;54.50;36.50;74.79;;
46393;Laerm;32099;53.588;10.176;2022-12-24T08:35:48;55.17;37.04;73.44;;
46393;Laerm;32099;53.588;10.176;2022-12-24T08:38:13;52.43;37.76;71.95;;
46393;Laerm;32099;53.588;10.176;2022-12-24T08:40:39;53.73;36.61;71.91;;
46393;Laerm;32099;53.588;10.176;2022-12-24T08:43:04;55.21;36.01;81.42;;
46393;Laerm;32099;53.588;10.176;2022-12-24T08:45:29;53.85;36.86;71.64;;
46393;Laerm;32099;53.588;10.176;2022-12-24T08:47:55;51.64;36.99;69.53;;
46393;Laerm;32099;53.588;10.176;2022-12-24T08:50:20;56.27;38.03;73.25;;
46393;Laerm;32099;53.588;10.176;2022-12-24T08:52:45;40.87;37.43;52.75;;
46393;Laerm;32099;53.588;10.176;2022-12-24T08:55:10;52.44;37.52;71.11;;
46393;Laerm;32099;53.588;10.176;2022-12-24T08:57:36;41.05;37.15;51.32;;
46393;Laerm;32099;53.588;10.176;2022-12-24T09:00:03;47.66;36.94;63.47;;
46393;Laerm;32099;53.588;10.176;2022-12-24T09:02:29;49.78;37.63;68.20;;
46393;Laerm;32099;53.588;10.176;2022-12-24T09:04:54;41.17;36.82;55.83;;
46393;Laerm;32099;53.588;10.176;2022-12-24T09:07:19;52.66;36.74;68.69;;
46393;Laerm;32099;53.588;10.176;2022-12-24T09:09:45;40.71;37.78;54.31;;
46393;Laerm;32099;53.588;10.176;2022-12-24T09:12:10;56.33;37.11;81.12;;
46393;Laerm;32099;53.588;10.176;2022-12-24T09:14:35;43.90;37.43;58.89;;
46393;Laerm;32099;53.588;10.176;2022-12-24T09:17:01;52.70;37.95;73.96;;
46393;Laerm;32099;53.588;10.176;2022-12-24T09:19:26;47.53;37.93;64.24;;
46393;Laerm;32099;53.588;10.176;2022-12-24T09:21:52;40.18;36.49;56.68;;
46393;Laerm;32099;53.588;10.176;2022-12-24T09:24:17;40.61;36.31;63.72;;
46393;Laerm;32099;53.588;10.176;2022-12-24T09:26:42;40.31;36.58;59.24;;
46393;Laerm;32099;53.588;10.176;2022-12-24T09:29:10;52.10;36.06;72.04;;
46393;Laerm;32099;53.588;10.176;2022-12-24T09:31:35;40.63;36.73;48.46;;
46393;Laerm;32099;53.588;10.176;2022-12-24T09:34:01;53.55;36.60;70.28;;
46393;Laerm;32099;53.588;10.176;2022-12-24T09:36:26;55.19;36.72;71.05;;
46393;Laerm;32099;53.588;10.176;2022-12-24T09:38:51;55.95;37.88;78.79;;
46393;Laerm;32099;53.588;10.176;2022-12-24T09:41:32;56.88;37.40;72.73;;
46393;Laerm;32099;53.588;10.176;2022-12-24T09:44:40;40.94;36.80;55.04;;
46393;Laerm;32099;53.588;10.176;2022-12-24T09:47:36;49.41;36.53;69.01;;
46393;Laerm;32099;53.588;10.176;2022-12-24T09:50:22;49.80;36.14;69.23;;
46393;Laerm;32099;53.588;10.176;2022-12-24T09:52:51;52.07;35.45;70.17;;
46393;Laerm;32099;53.588;10.176;2022-12-24T09:55:27;44.82;36.12;60.52;;
46393;Laerm;32099;53.588;10.176;2022-12-24T09:57:54;54.12;36.85;68.61;;
46393;Laerm;32099;53.588;10.176;2022-12-24T10:00:25;39.64;35.81;49.91;;
46393;Laerm;32099;53.588;10.176;2022-12-24T10:02:51;40.43;36.06;50.45;;
46393;Laerm;32099;53.588;10.176;2022-12-24T10:05:17;50.14;37.61;64.48;;
46393;Laerm;32099;53.588;10.176;2022-12-24T10:07:58;52.28;37.72;68.62;;
46393;Laerm;32099;53.588;10.176;2022-12-24T10:10:41;53.29;36.25;69.63;;
46393;Laerm;32099;53.588;10.176;2022-12-24T10:15:57;40.22;35.25;59.38;;
46393;Laerm;32099;53.588;10.176;2022-12-24T10:18:51;55.97;36.13;72.43;;
46393;Laerm;32099;53.588;10.176;2022-12-24T10:24:24;40.14;35.94;50.18;;
46393;Laerm;32099;53.588;10.176;2022-12-24T10:26:57;41.62;35.98;56.96;;
46393;Laerm;32099;53.588;10.176;2022-12-24T10:29:30;52.74;35.92;69.67;;
46393;Laerm;32099;53.588;10.176;2022-12-24T10:32:14;56.97;35.34;78.86;;
46393;Laerm;32099;53.588;10.176;2022-12-24T10:34:51;51.63;35.37;75.05;;
46393;Laerm;32099;53.588;10.176;2022-12-24T10:37:26;41.80;35.57;56.50;;
46393;Laerm;32099;53.588;10.176;2022-12-24T10:39:53;43.65;35.97;56.63;;
46393;Laerm;32099;53.588;10.176;2022-12-24T10:42:20;41.01;35.92;58.80;;
46393;Laerm;32099;53.588;10.176;2022-12-24T10:44:50;41.48;36.27;55.02;;
46393;Laerm;32099;53.588;10.176;2022-12-24T10:47:20;52.13;36.42;67.95;;
46393;Laerm;32099;53.588;10.176;2022-12-24T10:50:02;49.40;35.04;68.82;;
46393;Laerm;32099;53.588;10.176;2022-12-24T10:52:32;53.87;35.04;71.95;;
46393;Laerm;32099;53.588;10.176;2022-12-24T10:57:36;54.68;35.42;70.59;;
46393;Laerm;32099;53.588;10.176;2022-12-24T11:00:04;39.94;34.94;57.92;;
46393;Laerm;32099;53.588;10.176;2022-12-24T11:05:00;48.09;35.29;65.46;;
46393;Laerm;32099;53.588;10.176;2022-12-24T11:07:27;47.43;34.61;65.13;;
46393;Laerm;32099;53.588;10.176;2022-12-24T11:10:04;48.26;34.28;61.88;;
46393;Laerm;32099;53.588;10.176;2022-12-24T11:12:34;39.54;33.42;57.30;;
46393;Laerm;32099;53.588;10.176;2022-12-24T11:15:06;42.99;34.30;62.78;;
46393;Laerm;32099;53.588;10.176;2022-12-24T11:17:39;54.38;33.51;82.44;;
46393;Laerm;32099;53.588;10.176;2022-12-24T11:20:06;52.84;34.19;79.59;;
46393;Laerm;32099;53.588;10.176;2022-12-24T11:22:41;54.95;35.49;78.95;;
46393;Laerm;32099;53.588;10.176;2022-12-24T11:25:21;52.38;42.05;66.53;;
46393;Laerm;32099;53.588;10.176;2022-12-24T11:27:48;48.81;38.34;65.86;;
46393;Laerm;32099;53.588;10.176;2022-12-24T11:32:42;46.66;37.60;75.96;;
46393;Laerm;32099;53.588;10.176;2022-12-24T11:35:16;51.90;37.84;67.34;;
46393;Laerm;32099;53.588;10.176;2022-12-24T11:37:41;49.46;44.34;60.96;;
46393;Laerm;32099;53.588;10.176;2022-12-24T11:40:21;52.18;43.59;71.63;;
46393;Laerm;32099;53.588;10.176;2022-12-24T11:42:48;52.86;44.45;78.95;;
46393;Laerm;32099;53.588;10.176;2022-12-24T11:45:29;48.90;38.19;78.92;;
46393;Laerm;32099;53.588;10.176;2022-12-24T11:47:55;57.43;42.30;79.92;;
46393;Laerm;32099;53.588;10.176;2022-12-24T11:50:28;45.09;38.82;58.34;;
46393;Laerm;32099;53.588;10.176;2022-12-24T11:53:08;57.68;37.97;75.39;;
46393;Laerm;32099;53.588;10.176;2022-12-24T11:55:46;50.70;38.76;69.54;;
46393;Laerm;32099;53.588;10.176;2022-12-24T11:58:24;49.25;38.06;69.46;;
46393;Laerm;32099;53.588;10.176;2022-12-24T12:00:59;41.92;38.19;59.15;;
46393;Laerm;32099;53.588;10.176;2022-12-24T12:03:38;51.58;38.23;70.08;;
46393;Laerm;32099;53.588;10.176;2022-12-24T12:06:34;47.27;37.27;62.62;;
46393;Laerm;32099;53.588;10.176;2022-12-24T12:08:59;43.53;40.02;57.93;;
46393;Laerm;32099;53.588;10.176;2022-12-24T12:11:27;47.92;40.08;66.72;;
46393;Laerm;32099;53.588;10.176;2022-12-24T12:13:56;44.69;39.17;60.23;;
46393;Laerm;32099;53.588;10.176;2022-12-24T12:16:37;56.60;38.68;72.65;;
46393;Laerm;32099;53.588;10.176;2022-12-24T12:19:31;50.50;38.59;68.55;;
46393;Laerm;32099;53.588;10.176;2022-12-24T12:22:02;47.44;38.80;65.77;;
46393;Laerm;32099;53.588;10.176;2022-12-24T12:24:35;52.89;38.58;70.02;;
46393;Laerm;32099;53.588;10.176;2022-12-24T12:29:59;42.60;38.51;60.09;;
46393;Laerm;32099;53.588;10.176;2022-12-24T12:32:50;42.85;38.33;61.90;;
46393;Laerm;32099;53.588;10.176;2022-12-24T12:35:23;54.84;39.05;72.66;;
46393;Laerm;32099;53.588;10.176;2022-12-24T12:37:59;48.63;38.28;75.29;;
46393;Laerm;32099;53.588;10.176;2022-12-24T12:40:51;42.71;38.36;66.27;;
46393;Laerm;32099;53.588;10.176;2022-12-24T12:43:34;53.38;38.50;73.18;;
46393;Laerm;32099;53.588;10.176;2022-12-24T12:46:34;52.53;38.38;73.22;;
46393;Laerm;32099;53.588;10.176;2022-12-24T12:52:03;54.03;40.14;71.59;;
46393;Laerm;32099;53.588;10.176;2022-12-24T12:54:46;44.34;40.41;58.67;;
46393;Laerm;32099;53.588;10.176;2022-12-24T12:57:18;48.83;40.20;68.49;;
46393;Laerm;32099;53.588;10.176;2022-12-24T12:59:52;43.35;39.33;50.84;;
46393;Laerm;32099;53.588;10.176;2022-12-24T13:05:45;53.69;38.92;72.39;;
46393;Laerm;32099;53.588;10.176;2022-12-24T13:08:31;43.47;38.55;63.35;;
46393;Laerm;32099;53.588;10.176;2022-12-24T13:16:43;53.26;38.88;76.38;;
46393;Laerm;32099;53.588;10.176;2022-12-24T13:19:29;51.10;39.15;70.92;;
46393;Laerm;32099;53.588;10.176;2022-12-24T13:22:00;53.26;38.94;70.57;;
46393;Laerm;32099;53.588;10.176;2022-12-24T13:24:27;51.42;39.69;67.51;;
46393;Laerm;32099;53.588;10.176;2022-12-24T13:27:05;50.83;39.11;69.75;;
46393;Laerm;32099;53.588;10.176;2022-12-24T13:34:47;50.34;41.44;65.98;;
46393;Laerm;32099;53.588;10.176;2022-12-24T13:43:05;52.51;38.66;70.97;;
46393;Laerm;32099;53.588;10.176;2022-12-24T13:50:39;42.54;38.43;57.26;;
46393;Laerm;32099;53.588;10.176;2022-12-24T13:56:23;51.44;41.05;70.10;;
46393;Laerm;32099;53.588;10.176;2022-12-24T13:59:34;52.34;41.17;69.33;;
46393;Laerm;32099;53.588;10.176;2022-12-24T14:02:00;56.02;38.69;74.02;;
46393;Laerm;32099;53.588;10.176;2022-12-24T14:04:33;52.81;39.53;71.42;;
46393;Laerm;32099;53.588;10.176;2022-12-24T14:07:02;47.84;38.97;64.34;;
46393;Laerm;32099;53.588;10.176;2022-12-24T14:09:30;50.61;36.43;67.81;;
46393;Laerm;32099;53.588;10.176;2022-12-24T14:14:28;47.55;37.10;62.22;;
46393;Laerm;32099;53.588;10.176;2022-12-24T14:16:57;51.26;36.88;75.74;;
46393;Laerm;32099;53.588;10.176;2022-12-24T14:19:25;42.04;36.45;58.14;;
46393;Laerm;32099;53.588;10.176;2022-12-24T14:25:20;51.57;36.80;68.57;;
46393;Laerm;32099;53.588;10.176;2022-12-24T14:27:58;54.97;37.05;85.79;;
46393;Laerm;32099;53.588;10.176;2022-12-24T14:30:28;44.49;36.67;64.10;;
46393;Laerm;32099;53.588;10.176;2022-12-24T14:32:55;50.27;36.40;67.44;;
46393;Laerm;32099;53.588;10.176;2022-12-24T14:35:34;49.58;36.02;66.47;;
46393;Laerm;32099;53.588;10.176;2022-12-24T14:38:14;40.74;35.95;61.01;;
46393;Laerm;32099;53.588;10.176;2022-12-24T14:46:25;46.61;35.97;64.42;;
46393;Laerm;32099;53.588;10.176;2022-12-24T14:48:57;40.48;35.97;49.53;;
46393;Laerm;32099;53.588;10.176;2022-12-24T14:51:49;46.82;35.23;66.26;;
46393;Laerm;32099;53.588;10.176;2022-12-24T14:54:42;39.73;35.69;53.30;;
46393;Laerm;32099;53.588;10.176;2022-12-24T14:57:22;48.71;36.25;67.87;;
46393;Laerm;32099;53.588;10.176;2022-12-24T14:59:50;52.77;36.65;74.54;;